sensor_id;sensor_type;location;lat;lon;timestamp;pressure;altitude;pressure_sealevel;temperature;humidity
81057;BME280;70563;50.084;14.468;2023-11-22T00:00:16;98999.25;;;1.86;77.44
81057;BME280;70563;50.084;14.468;2023-11-22T00:02:41;99005.69;;;2.03;76.48
81057;BME280;70563;50.084;14.468;2023-11-22T00:05:07;99002.75;;;1.96;76.62
81057;BME280;70563;50.084;14.468;2023-11-22T00:07:33;98999.78;;;2.00;77.47
81057;BME280;70563;50.084;14.468;2023-11-22T00:09:58;99008.16;;;2.15;76.75
81057;BME280;70563;50.084;14.468;2023-11-22T00:12:24;99005.59;;;2.04;77.36
81057;BME280;70563;50.084;14.468;2023-11-22T00:14:50;99012.91;;;2.10;77.93
81057;BME280;70563;50.084;14.468;2023-11-22T00:17:16;99019.56;;;1.81;77.21
81057;BME280;70563;50.084;14.468;2023-11-22T00:19:45;99023.97;;;1.69;77.29
81057;BME280;70563;50.084;14.468;2023-11-22T00:22:11;99022.53;;;1.87;77.06
81057;BME280;70563;50.084;14.468;2023-11-22T00:24:41;99022.69;;;1.86;76.09
81057;BME280;70563;50.084;14.468;2023-11-22T00:27:07;99034.75;;;1.87;75.79
81057;BME280;70563;50.084;14.468;2023-11-22T00:29:33;99037.44;;;1.85;75.41
81057;BME280;70563;50.084;14.468;2023-11-22T00:31:59;99029.88;;;1.93;75.05
81057;BME280;70563;50.084;14.468;2023-11-22T00:34:25;99034.38;;;1.80;75.90
81057;BME280;70563;50.084;14.468;2023-11-22T00:36:51;99035.91;;;1.94;76.36
81057;BME280;70563;50.084;14.468;2023-11-22T00:39:17;99036.50;;;1.64;75.96
81057;BME280;70563;50.084;14.468;2023-11-22T00:41:43;99027.88;;;1.86;75.04
81057;BME280;70563;50.084;14.468;2023-11-22T00:44:09;99042.22;;;1.69;75.62
81057;BME280;70563;50.084;14.468;2023-11-22T00:46:35;99047.97;;;1.50;75.85
81057;BME280;70563;50.084;14.468;2023-11-22T00:49:01;99038.66;;;1.47;76.05
81057;BME280;70563;50.084;14.468;2023-11-22T00:51:26;99046.31;;;1.71;75.47
81057;BME280;70563;50.084;14.468;2023-11-22T00:53:52;99046.09;;;1.63;75.56
81057;BME280;70563;50.084;14.468;2023-11-22T00:56:18;99044.53;;;1.49;76.58
81057;BME280;70563;50.084;14.468;2023-11-22T00:58:43;99054.34;;;1.46;76.15
81057;BME280;70563;50.084;14.468;2023-11-22T01:01:08;99053.06;;;1.63;75.48
81057;BME280;70563;50.084;14.468;2023-11-22T01:03:34;99047.97;;;1.50;75.17
81057;BME280;70563;50.084;14.468;2023-11-22T01:06:00;99054.81;;;1.51;75.31
81057;BME280;70563;50.084;14.468;2023-11-22T01:08:26;99059.56;;;1.35;75.75
81057;BME280;70563;50.084;14.468;2023-11-22T01:10:51;99061.00;;;1.39;75.88
81057;BME280;70563;50.084;14.468;2023-11-22T01:13:17;99052.09;;;1.30;76.21
81057;BME280;70563;50.084;14.468;2023-11-22T01:15:43;99062.88;;;1.37;76.07
81057;BME280;70563;50.084;14.468;2023-11-22T01:18:10;99052.94;;;1.31;76.30
81057;BME280;70563;50.084;14.468;2023-11-22T01:20:35;99063.47;;;1.40;75.36
81057;BME280;70563;50.084;14.468;2023-11-22T01:23:01;99065.38;;;1.49;75.36
81057;BME280;70563;50.084;14.468;2023-11-22T01:25:26;99066.41;;;1.36;75.89
81057;BME280;70563;50.084;14.468;2023-11-22T01:27:53;99074.47;;;1.44;75.96
81057;BME280;70563;50.084;14.468;2023-11-22T01:30:19;99085.66;;;1.22;76.76
81057;BME280;70563;50.084;14.468;2023-11-22T01:32:44;99086.00;;;1.17;77.01
81057;BME280;70563;50.084;14.468;2023-11-22T01:35:10;99083.91;;;1.34;77.64
81057;BME280;70563;50.084;14.468;2023-11-22T01:37:35;99091.69;;;1.34;77.09
81057;BME280;70563;50.084;14.468;2023-11-22T01:40:01;99083.16;;;1.20;77.71
81057;BME280;70563;50.084;14.468;2023-11-22T01:42:28;99086.19;;;1.38;76.34
81057;BME280;70563;50.084;14.468;2023-11-22T01:44:54;99086.41;;;1.46;76.66
81057;BME280;70563;50.084;14.468;2023-11-22T01:47:19;99086.31;;;1.48;76.61
81057;BME280;70563;50.084;14.468;2023-11-22T01:49:45;99085.44;;;1.36;77.02
81057;BME280;70563;50.084;14.468;2023-11-22T01:52:11;99095.81;;;1.25;77.68
81057;BME280;70563;50.084;14.468;2023-11-22T01:54:37;99093.03;;;1.39;77.34
81057;BME280;70563;50.084;14.468;2023-11-22T01:57:03;99102.97;;;1.34;76.47
81057;BME280;70563;50.084;14.468;2023-11-22T01:59:31;99092.66;;;1.33;77.95
81057;BME280;70563;50.084;14.468;2023-11-22T02:01:57;99098.75;;;1.20;78.17
81057;BME280;70563;50.084;14.468;2023-11-22T02:04:22;99102.88;;;1.12;77.77
81057;BME280;70563;50.084;14.468;2023-11-22T02:06:48;99091.44;;;1.14;77.46
81057;BME280;70563;50.084;14.468;2023-11-22T02:09:13;99099.84;;;1.18;78.21
81057;BME280;70563;50.084;14.468;2023-11-22T02:11:41;99113.06;;;1.15;78.33
81057;BME280;70563;50.084;14.468;2023-11-22T02:14:13;99116.47;;;1.04;78.60
81057;BME280;70563;50.084;14.468;2023-11-22T02:16:38;99119.56;;;1.20;77.49
81057;BME280;70563;50.084;14.468;2023-11-22T02:19:06;99124.84;;;1.08;78.12
81057;BME280;70563;50.084;14.468;2023-11-22T02:21:32;99121.81;;;1.14;77.13
81057;BME280;70563;50.084;14.468;2023-11-22T02:23:58;99127.84;;;1.14;76.89
81057;BME280;70563;50.084;14.468;2023-11-22T02:26:23;99142.78;;;1.23;76.50
81057;BME280;70563;50.084;14.468;2023-11-22T02:28:50;99142.34;;;1.06;75.71
81057;BME280;70563;50.084;14.468;2023-11-22T02:31:15;99147.28;;;0.97;76.24
81057;BME280;70563;50.084;14.468;2023-11-22T02:33:41;99143.63;;;1.00;75.01
81057;BME280;70563;50.084;14.468;2023-11-22T02:36:07;99156.91;;;1.08;75.40
81057;BME280;70563;50.084;14.468;2023-11-22T02:38:33;99161.06;;;1.11;72.93
81057;BME280;70563;50.084;14.468;2023-11-22T02:41:00;99159.47;;;0.97;76.02
81057;BME280;70563;50.084;14.468;2023-11-22T02:43:26;99162.81;;;0.86;73.61
81057;BME280;70563;50.084;14.468;2023-11-22T02:45:51;99165.41;;;0.86;73.80
81057;BME280;70563;50.084;14.468;2023-11-22T02:48:17;99173.13;;;0.88;74.11
81057;BME280;70563;50.084;14.468;2023-11-22T02:50:43;99175.72;;;0.88;73.53
81057;BME280;70563;50.084;14.468;2023-11-22T02:53:09;99181.88;;;0.87;74.57
81057;BME280;70563;50.084;14.468;2023-11-22T02:55:35;99187.06;;;0.87;74.16
81057;BME280;70563;50.084;14.468;2023-11-22T02:58:00;99174.38;;;1.06;76.44
81057;BME280;70563;50.084;14.468;2023-11-22T03:00:27;99180.22;;;1.10;73.75
81057;BME280;70563;50.084;14.468;2023-11-22T03:02:54;99173.50;;;1.18;74.09
81057;BME280;70563;50.084;14.468;2023-11-22T03:05:21;99176.72;;;0.98;72.95
81057;BME280;70563;50.084;14.468;2023-11-22T03:07:47;99181.75;;;0.88;73.64
81057;BME280;70563;50.084;14.468;2023-11-22T03:10:13;99186.94;;;0.88;73.83
81057;BME280;70563;50.084;14.468;2023-11-22T03:12:39;99183.41;;;0.89;72.98
81057;BME280;70563;50.084;14.468;2023-11-22T03:15:04;99183.44;;;0.77;72.85
81057;BME280;70563;50.084;14.468;2023-11-22T03:17:30;99192.16;;;0.88;73.47
81057;BME280;70563;50.084;14.468;2023-11-22T03:19:56;99196.06;;;0.94;72.84
81057;BME280;70563;50.084;14.468;2023-11-22T03:22:25;99207.13;;;0.85;75.39
81057;BME280;70563;50.084;14.468;2023-11-22T03:24:52;99213.84;;;0.63;73.93
81057;BME280;70563;50.084;14.468;2023-11-22T03:27:18;99218.00;;;0.66;75.19
81057;BME280;70563;50.084;14.468;2023-11-22T03:29:43;99220.78;;;0.75;75.43
81057;BME280;70563;50.084;14.468;2023-11-22T03:32:09;99212.38;;;0.72;77.07
81057;BME280;70563;50.084;14.468;2023-11-22T03:34:36;99220.69;;;0.64;77.15
81057;BME280;70563;50.084;14.468;2023-11-22T03:37:02;99224.94;;;0.78;77.45
81057;BME280;70563;50.084;14.468;2023-11-22T03:39:27;99222.91;;;0.58;80.23
81057;BME280;70563;50.084;14.468;2023-11-22T03:41:52;99226.88;;;0.38;81.62
81057;BME280;70563;50.084;14.468;2023-11-22T03:44:18;99222.94;;;0.45;82.37
81057;BME280;70563;50.084;14.468;2023-11-22T03:46:43;99235.09;;;0.44;82.97
81057;BME280;70563;50.084;14.468;2023-11-22T03:49:09;99240.28;;;0.57;83.29
81057;BME280;70563;50.084;14.468;2023-11-22T03:51:36;99261.47;;;0.51;82.43
81057;BME280;70563;50.084;14.468;2023-11-22T03:54:02;99252.97;;;0.49;82.97
81057;BME280;70563;50.084;14.468;2023-11-22T03:56:28;99261.47;;;0.51;82.72
81057;BME280;70563;50.084;14.468;2023-11-22T03:58:54;99265.84;;;0.25;82.88
81057;BME280;70563;50.084;14.468;2023-11-22T04:01:19;99267.94;;;0.33;84.65
81057;BME280;70563;50.084;14.468;2023-11-22T04:03:46;99264.91;;;0.52;84.12
81057;BME280;70563;50.084;14.468;2023-11-22T04:06:14;99265.31;;;0.58;84.07
81057;BME280;70563;50.084;14.468;2023-11-22T04:08:41;99275.59;;;0.60;83.75
81057;BME280;70563;50.084;14.468;2023-11-22T04:11:08;99282.91;;;0.42;80.28
81057;BME280;70563;50.084;14.468;2023-11-22T04:13:33;99280.72;;;0.61;79.83
81057;BME280;70563;50.084;14.468;2023-11-22T04:15:59;99282.38;;;0.49;79.34
81057;BME280;70563;50.084;14.468;2023-11-22T04:18:24;99279.00;;;0.73;77.51
81057;BME280;70563;50.084;14.468;2023-11-22T04:20:49;99277.16;;;0.75;80.35
81057;BME280;70563;50.084;14.468;2023-11-22T04:23:15;99279.97;;;0.59;77.52
81057;BME280;70563;50.084;14.468;2023-11-22T04:25:41;99278.19;;;0.60;77.38
81057;BME280;70563;50.084;14.468;2023-11-22T04:28:07;99282.47;;;0.61;81.37
81057;BME280;70563;50.084;14.468;2023-11-22T04:30:34;99280.38;;;0.79;78.34
81057;BME280;70563;50.084;14.468;2023-11-22T04:32:59;99276.31;;;0.74;77.03
81057;BME280;70563;50.084;14.468;2023-11-22T04:35:25;99268.50;;;0.87;77.20
81057;BME280;70563;50.084;14.468;2023-11-22T04:37:50;99267.69;;;1.11;75.71
81057;BME280;70563;50.084;14.468;2023-11-22T04:40:15;99273.72;;;1.11;73.92
81057;BME280;70563;50.084;14.468;2023-11-22T04:42:41;99278.13;;;0.98;74.71
81057;BME280;70563;50.084;14.468;2023-11-22T04:45:06;99288.03;;;0.93;74.73
81057;BME280;70563;50.084;14.468;2023-11-22T04:47:32;99287.66;;;0.73;75.42
81057;BME280;70563;50.084;14.468;2023-11-22T04:49:58;99296.59;;;0.82;76.12
81057;BME280;70563;50.084;14.468;2023-11-22T04:52:23;99299.28;;;0.81;75.09
81057;BME280;70563;50.084;14.468;2023-11-22T04:54:49;99301.19;;;0.66;74.90
81057;BME280;70563;50.084;14.468;2023-11-22T04:57:14;99311.97;;;0.72;75.00
81057;BME280;70563;50.084;14.468;2023-11-22T04:59:40;99318.44;;;0.80;75.75
81057;BME280;70563;50.084;14.468;2023-11-22T05:02:06;99321.75;;;0.69;74.97
81057;BME280;70563;50.084;14.468;2023-11-22T05:04:32;99331.75;;;0.75;76.74
81057;BME280;70563;50.084;14.468;2023-11-22T05:06:57;99330.09;;;0.74;75.48
81057;BME280;70563;50.084;14.468;2023-11-22T05:09:23;99341.31;;;0.87;74.64
81057;BME280;70563;50.084;14.468;2023-11-22T05:11:49;99339.31;;;0.91;75.20
81057;BME280;70563;50.084;14.468;2023-11-22T05:14:14;99340.22;;;1.03;74.39
81057;BME280;70563;50.084;14.468;2023-11-22T05:16:40;99348.16;;;1.01;74.04
81057;BME280;70563;50.084;14.468;2023-11-22T05:19:05;99350.25;;;0.70;76.11
81057;BME280;70563;50.084;14.468;2023-11-22T05:21:31;99356.09;;;0.74;76.77
81057;BME280;70563;50.084;14.468;2023-11-22T05:23:57;99364.41;;;0.66;76.47
81057;BME280;70563;50.084;14.468;2023-11-22T05:26:22;99367.41;;;0.73;78.07
81057;BME280;70563;50.084;14.468;2023-11-22T05:28:48;99373.34;;;0.62;76.29
81057;BME280;70563;50.084;14.468;2023-11-22T05:31:14;99381.34;;;0.72;76.91
81057;BME280;70563;50.084;14.468;2023-11-22T05:33:39;99378.94;;;0.69;76.52
81057;BME280;70563;50.084;14.468;2023-11-22T05:36:06;99379.22;;;0.52;76.76
81057;BME280;70563;50.084;14.468;2023-11-22T05:38:31;99390.28;;;0.68;76.38
81057;BME280;70563;50.084;14.468;2023-11-22T05:40:59;99387.03;;;0.64;76.87
81057;BME280;70563;50.084;14.468;2023-11-22T05:43:25;99402.56;;;0.66;79.32
81057;BME280;70563;50.084;14.468;2023-11-22T05:45:52;99398.81;;;0.83;76.06
81057;BME280;70563;50.084;14.468;2023-11-22T05:48:17;99397.22;;;0.55;76.97
81057;BME280;70563;50.084;14.468;2023-11-22T05:50:44;99401.28;;;0.59;77.73
81057;BME280;70563;50.084;14.468;2023-11-22T05:53:10;99393.09;;;0.52;77.76
81057;BME280;70563;50.084;14.468;2023-11-22T05:55:36;99404.91;;;0.56;77.80
81057;BME280;70563;50.084;14.468;2023-11-22T05:58:03;99412.81;;;0.55;78.32
81057;BME280;70563;50.084;14.468;2023-11-22T06:00:28;99423.66;;;0.61;77.76
81057;BME280;70563;50.084;14.468;2023-11-22T06:02:53;99422.53;;;0.65;77.96
81057;BME280;70563;50.084;14.468;2023-11-22T06:05:20;99427.69;;;0.53;77.87
81057;BME280;70563;50.084;14.468;2023-11-22T06:07:45;99424.69;;;0.59;77.15
81057;BME280;70563;50.084;14.468;2023-11-22T06:10:11;99432.78;;;0.54;77.13
81057;BME280;70563;50.084;14.468;2023-11-22T06:12:39;99431.59;;;0.33;77.48
81057;BME280;70563;50.084;14.468;2023-11-22T06:15:05;99422.53;;;0.25;77.44
81057;BME280;70563;50.084;14.468;2023-11-22T06:17:31;99416.31;;;0.28;78.08
81057;BME280;70563;50.084;14.468;2023-11-22T06:19:56;99432.13;;;0.38;77.14
81057;BME280;70563;50.084;14.468;2023-11-22T06:22:22;99438.19;;;0.51;77.96
81057;BME280;70563;50.084;14.468;2023-11-22T06:24:47;99431.06;;;0.28;77.59
81057;BME280;70563;50.084;14.468;2023-11-22T06:27:13;99436.31;;;0.40;77.83
81057;BME280;70563;50.084;14.468;2023-11-22T06:29:40;99444.44;;;0.61;76.23
81057;BME280;70563;50.084;14.468;2023-11-22T06:32:06;99441.31;;;0.69;75.33
81057;BME280;70563;50.084;14.468;2023-11-22T06:34:31;99440.84;;;0.37;76.94
81057;BME280;70563;50.084;14.468;2023-11-22T06:36:57;99444.44;;;0.48;77.37
81057;BME280;70563;50.084;14.468;2023-11-22T06:39:22;99439.56;;;0.57;75.99
81057;BME280;70563;50.084;14.468;2023-11-22T06:41:49;99450.06;;;0.68;75.56
81057;BME280;70563;50.084;14.468;2023-11-22T06:44:15;99457.78;;;0.69;75.42
81057;BME280;70563;50.084;14.468;2023-11-22T06:46:40;99461.50;;;0.65;75.47
81057;BME280;70563;50.084;14.468;2023-11-22T06:49:06;99453.78;;;0.51;76.71
81057;BME280;70563;50.084;14.468;2023-11-22T06:51:31;99463.78;;;0.57;76.26
81057;BME280;70563;50.084;14.468;2023-11-22T06:53:57;99468.56;;;0.63;75.83
81057;BME280;70563;50.084;14.468;2023-11-22T06:56:22;99459.69;;;0.40;76.81
81057;BME280;70563;50.084;14.468;2023-11-22T06:58:48;99456.19;;;0.54;76.33
81057;BME280;70563;50.084;14.468;2023-11-22T07:01:13;99452.34;;;0.60;76.28
81057;BME280;70563;50.084;14.468;2023-11-22T07:03:39;99450.50;;;0.74;75.66
81057;BME280;70563;50.084;14.468;2023-11-22T07:06:05;99464.69;;;0.56;76.02
81057;BME280;70563;50.084;14.468;2023-11-22T07:08:30;99463.75;;;0.44;76.46
81057;BME280;70563;50.084;14.468;2023-11-22T07:10:56;99471.78;;;0.54;76.94
81057;BME280;70563;50.084;14.468;2023-11-22T07:13:24;99472.25;;;0.73;76.38
81057;BME280;70563;50.084;14.468;2023-11-22T07:15:52;99482.00;;;0.70;75.93
81057;BME280;70563;50.084;14.468;2023-11-22T07:18:19;99490.44;;;0.86;75.88
81057;BME280;70563;50.084;14.468;2023-11-22T07:20:44;99491.03;;;0.77;75.85
81057;BME280;70563;50.084;14.468;2023-11-22T07:23:09;99494.41;;;0.92;75.49
81057;BME280;70563;50.084;14.468;2023-11-22T07:25:38;99490.88;;;0.93;74.99
81057;BME280;70563;50.084;14.468;2023-11-22T07:28:04;99504.06;;;0.90;76.50
81057;BME280;70563;50.084;14.468;2023-11-22T07:30:29;99519.03;;;0.99;74.87
81057;BME280;70563;50.084;14.468;2023-11-22T07:32:56;99530.38;;;0.85;77.07
81057;BME280;70563;50.084;14.468;2023-11-22T07:35:21;99536.81;;;0.80;76.13
81057;BME280;70563;50.084;14.468;2023-11-22T07:37:46;99539.59;;;0.77;76.26
81057;BME280;70563;50.084;14.468;2023-11-22T07:40:13;99544.31;;;0.84;77.00
81057;BME280;70563;50.084;14.468;2023-11-22T07:42:42;99548.25;;;0.90;76.35
81057;BME280;70563;50.084;14.468;2023-11-22T07:45:09;99548.25;;;0.90;75.96
81057;BME280;70563;50.084;14.468;2023-11-22T07:47:37;99563.41;;;1.10;75.06
81057;BME280;70563;50.084;14.468;2023-11-22T07:50:07;99554.53;;;1.00;76.42
81057;BME280;70563;50.084;14.468;2023-11-22T07:52:32;99549.97;;;1.16;75.25
81057;BME280;70563;50.084;14.468;2023-11-22T07:54:58;99552.78;;;1.13;76.26
81057;BME280;70563;50.084;14.468;2023-11-22T07:57:24;99551.75;;;1.29;74.93
81057;BME280;70563;50.084;14.468;2023-11-22T07:59:50;99555.78;;;1.07;75.16
81057;BME280;70563;50.084;14.468;2023-11-22T08:02:19;99543.03;;;1.17;74.93
81057;BME280;70563;50.084;14.468;2023-11-22T08:04:45;99518.75;;;0.91;76.31
81057;BME280;70563;50.084;14.468;2023-11-22T08:07:10;99514.97;;;0.95;76.52
81057;BME280;70563;50.084;14.468;2023-11-22T08:09:43;99514.78;;;0.85;76.65
81057;BME280;70563;50.084;14.468;2023-11-22T08:12:09;99527.94;;;1.09;76.45
81057;BME280;70563;50.084;14.468;2023-11-22T08:14:38;99541.31;;;1.03;75.99
81057;BME280;70563;50.084;14.468;2023-11-22T08:17:05;99569.94;;;1.03;77.11
81057;BME280;70563;50.084;14.468;2023-11-22T08:19:31;99575.88;;;1.05;76.67
81057;BME280;70563;50.084;14.468;2023-11-22T08:21:57;99580.25;;;1.05;76.45
81057;BME280;70563;50.084;14.468;2023-11-22T08:24:22;99579.94;;;1.09;77.54
81057;BME280;70563;50.084;14.468;2023-11-22T08:26:48;99584.81;;;1.01;76.51
81057;BME280;70563;50.084;14.468;2023-11-22T08:29:13;99589.38;;;0.97;77.72
81057;BME280;70563;50.084;14.468;2023-11-22T08:31:40;99605.09;;;0.96;78.06
81057;BME280;70563;50.084;14.468;2023-11-22T08:34:05;99611.66;;;1.02;77.40
81057;BME280;70563;50.084;14.468;2023-11-22T08:36:35;99616.06;;;1.14;77.49
81057;BME280;70563;50.084;14.468;2023-11-22T08:39:04;99625.97;;;1.21;77.00
81057;BME280;70563;50.084;14.468;2023-11-22T08:41:30;99629.19;;;1.38;75.83
81057;BME280;70563;50.084;14.468;2023-11-22T08:43:57;99617.03;;;1.25;76.76
81057;BME280;70563;50.084;14.468;2023-11-22T08:46:22;99608.09;;;1.30;77.29
81057;BME280;70563;50.084;14.468;2023-11-22T08:48:49;99602.97;;;1.41;76.35
81057;BME280;70563;50.084;14.468;2023-11-22T08:51:16;99605.97;;;1.09;76.64
81057;BME280;70563;50.084;14.468;2023-11-22T08:53:41;99607.81;;;1.07;78.03
81057;BME280;70563;50.084;14.468;2023-11-22T08:56:09;99613.00;;;1.07;77.87
81057;BME280;70563;50.084;14.468;2023-11-22T08:58:34;99617.03;;;1.25;77.24
81057;BME280;70563;50.084;14.468;2023-11-22T09:01:00;99626.06;;;1.20;76.98
81057;BME280;70563;50.084;14.468;2023-11-22T09:03:25;99628.66;;;1.20;76.40
81057;BME280;70563;50.084;14.468;2023-11-22T09:05:51;99641.34;;;1.24;76.94
81057;BME280;70563;50.084;14.468;2023-11-22T09:08:19;99638.03;;;1.22;77.58
81057;BME280;70563;50.084;14.468;2023-11-22T09:10:46;99643.06;;;1.25;76.20
81057;BME280;70563;50.084;14.468;2023-11-22T09:13:12;99635.56;;;1.46;75.82
81057;BME280;70563;50.084;14.468;2023-11-22T09:15:40;99633.69;;;1.36;76.00
81057;BME280;70563;50.084;14.468;2023-11-22T09:18:06;99626.94;;;1.46;75.40
81057;BME280;70563;50.084;14.468;2023-11-22T09:20:33;99634.44;;;1.50;74.19
81057;BME280;70563;50.084;14.468;2023-11-22T09:22:58;99648.81;;;1.43;76.23
81057;BME280;70563;50.084;14.468;2023-11-22T09:25:25;99647.34;;;1.39;75.62
81057;BME280;70563;50.084;14.468;2023-11-22T09:27:56;99650.34;;;1.46;75.70
81057;BME280;70563;50.084;14.468;2023-11-22T09:30:25;99650.16;;;1.49;75.09
81057;BME280;70563;50.084;14.468;2023-11-22T09:33:01;99654.31;;;1.39;75.57
81057;BME280;70563;50.084;14.468;2023-11-22T09:35:27;99656.28;;;1.35;77.05
81057;BME280;70563;50.084;14.468;2023-11-22T09:37:57;99659.84;;;1.47;76.99
81057;BME280;70563;50.084;14.468;2023-11-22T09:40:23;99643.06;;;1.51;75.04
81057;BME280;70563;50.084;14.468;2023-11-22T09:42:48;99641.00;;;1.43;76.29
81057;BME280;70563;50.084;14.468;2023-11-22T09:45:20;99647.03;;;1.44;76.20
81057;BME280;70563;50.084;14.468;2023-11-22T09:47:45;99654.66;;;1.47;76.47
81057;BME280;70563;50.084;14.468;2023-11-22T09:50:19;99660.38;;;1.52;77.68
81057;BME280;70563;50.084;14.468;2023-11-22T09:52:50;99667.44;;;1.63;78.64
81057;BME280;70563;50.084;14.468;2023-11-22T09:55:16;99663.91;;;1.38;75.49
81057;BME280;70563;50.084;14.468;2023-11-22T09:57:43;99670.94;;;1.36;76.00
81057;BME280;70563;50.084;14.468;2023-11-22T10:00:10;99667.88;;;1.57;75.04
81057;BME280;70563;50.084;14.468;2023-11-22T10:02:40;99671.94;;;1.61;75.59
81057;BME280;70563;50.084;14.468;2023-11-22T10:05:06;99672.63;;;1.50;74.43
81057;BME280;70563;50.084;14.468;2023-11-22T10:07:34;99680.03;;;1.43;75.52
81057;BME280;70563;50.084;14.468;2023-11-22T10:10:00;99676.31;;;1.60;74.43
81057;BME280;70563;50.084;14.468;2023-11-22T10:12:30;99685.59;;;1.64;74.87
81057;BME280;70563;50.084;14.468;2023-11-22T10:14:55;99688.91;;;1.66;74.55
81057;BME280;70563;50.084;14.468;2023-11-22T10:17:32;99699.09;;;1.44;76.18
81057;BME280;70563;50.084;14.468;2023-11-22T10:19:57;99711.22;;;1.31;75.81
81057;BME280;70563;50.084;14.468;2023-11-22T10:22:23;99712.19;;;1.42;75.64
81057;BME280;70563;50.084;14.468;2023-11-22T10:24:48;99710.63;;;1.40;75.48
81057;BME280;70563;50.084;14.468;2023-11-22T10:27:14;99712.75;;;1.20;76.44
81057;BME280;70563;50.084;14.468;2023-11-22T10:29:41;99713.72;;;1.32;75.58
81057;BME280;70563;50.084;14.468;2023-11-22T10:32:06;99714.47;;;1.34;75.49
81057;BME280;70563;50.084;14.468;2023-11-22T10:34:33;99709.56;;;1.03;76.89
81057;BME280;70563;50.084;14.468;2023-11-22T10:36:58;99712.06;;;1.04;77.58
81057;BME280;70563;50.084;14.468;2023-11-22T10:39:26;99704.25;;;1.31;75.68
81057;BME280;70563;50.084;14.468;2023-11-22T10:41:52;99696.09;;;1.23;76.92
81057;BME280;70563;50.084;14.468;2023-11-22T10:44:20;99698.22;;;1.31;76.91
81057;BME280;70563;50.084;14.468;2023-11-22T10:46:47;99702.09;;;1.50;75.12
81057;BME280;70563;50.084;14.468;2023-11-22T10:49:12;99716.28;;;1.19;76.28
81057;BME280;70563;50.084;14.468;2023-11-22T10:51:40;99722.94;;;1.50;75.36
81057;BME280;70563;50.084;14.468;2023-11-22T10:54:06;99726.44;;;1.37;75.22
81057;BME280;70563;50.084;14.468;2023-11-22T10:56:38;99726.84;;;1.31;75.36
81057;BME280;70563;50.084;14.468;2023-11-22T10:59:11;99722.25;;;1.21;75.91
81057;BME280;70563;50.084;14.468;2023-11-22T11:01:43;99727.25;;;1.37;75.32
81057;BME280;70563;50.084;14.468;2023-11-22T11:04:20;99721.47;;;1.46;75.39
81057;BME280;70563;50.084;14.468;2023-11-22T11:06:51;99724.31;;;1.56;74.45
81057;BME280;70563;50.084;14.468;2023-11-22T11:09:19;99734.31;;;1.62;74.72
81057;BME280;70563;50.084;14.468;2023-11-22T11:11:46;99727.84;;;1.68;74.99
81057;BME280;70563;50.084;14.468;2023-11-22T11:14:12;99723.69;;;1.65;74.74
81057;BME280;70563;50.084;14.468;2023-11-22T11:16:39;99724.19;;;1.58;74.31
81057;BME280;70563;50.084;14.468;2023-11-22T11:19:15;99721.81;;;1.67;74.74
81057;BME280;70563;50.084;14.468;2023-11-22T11:21:43;99714.28;;;1.50;74.27
81057;BME280;70563;50.084;14.468;2023-11-22T11:24:08;99705.63;;;1.37;74.94
81057;BME280;70563;50.084;14.468;2023-11-22T11:26:34;99705.44;;;1.53;77.08
81057;BME280;70563;50.084;14.468;2023-11-22T11:29:00;99703.69;;;1.53;75.27
81057;BME280;70563;50.084;14.468;2023-11-22T11:31:31;99699.91;;;1.44;74.97
81057;BME280;70563;50.084;14.468;2023-11-22T11:33:57;99692.78;;;1.34;74.37
81057;BME280;70563;50.084;14.468;2023-11-22T11:36:27;99710.31;;;1.44;74.92
81057;BME280;70563;50.084;14.468;2023-11-22T11:38:55;99706.75;;;1.33;74.38
81057;BME280;70563;50.084;14.468;2023-11-22T11:41:29;99705.97;;;1.58;73.60
81057;BME280;70563;50.084;14.468;2023-11-22T11:43:56;99716.63;;;1.67;73.36
81057;BME280;70563;50.084;14.468;2023-11-22T11:46:22;99708.75;;;1.82;72.92
81057;BME280;70563;50.084;14.468;2023-11-22T11:48:51;99709.56;;;1.95;72.05
81057;BME280;70563;50.084;14.468;2023-11-22T11:51:18;99714.56;;;1.98;71.49
81057;BME280;70563;50.084;14.468;2023-11-22T11:53:44;99716.97;;;2.01;72.18
81057;BME280;70563;50.084;14.468;2023-11-22T11:56:10;99714.75;;;1.69;72.82
81057;BME280;70563;50.084;14.468;2023-11-22T11:58:37;99712.81;;;1.86;72.70
81057;BME280;70563;50.084;14.468;2023-11-22T12:01:04;99707.50;;;2.00;71.45
81057;BME280;70563;50.084;14.468;2023-11-22T12:03:30;99713.53;;;2.00;72.35
81057;BME280;70563;50.084;14.468;2023-11-22T12:05:56;99716.66;;;1.93;71.63
81057;BME280;70563;50.084;14.468;2023-11-22T12:08:21;99718.09;;;1.97;72.31
81057;BME280;70563;50.084;14.468;2023-11-22T12:10:47;99717.16;;;2.23;71.50
81057;BME280;70563;50.084;14.468;2023-11-22T12:13:20;99718.31;;;2.19;71.24
81057;BME280;70563;50.084;14.468;2023-11-22T12:15:47;99726.97;;;2.33;70.44
81057;BME280;70563;50.084;14.468;2023-11-22T12:18:12;99740.41;;;2.26;71.11
81057;BME280;70563;50.084;14.468;2023-11-22T12:20:39;99737.69;;;1.90;71.96
81057;BME280;70563;50.084;14.468;2023-11-22T12:23:04;99740.00;;;1.94;73.22
81057;BME280;70563;50.084;14.468;2023-11-22T12:25:30;99737.09;;;1.99;71.90
81057;BME280;70563;50.084;14.468;2023-11-22T12:27:56;99751.84;;;1.98;72.30
81057;BME280;70563;50.084;14.468;2023-11-22T12:30:32;99750.50;;;1.93;73.15
81057;BME280;70563;50.084;14.468;2023-11-22T12:33:05;99749.56;;;2.07;71.91
81057;BME280;70563;50.084;14.468;2023-11-22T12:35:31;99755.84;;;2.04;71.52
81057;BME280;70563;50.084;14.468;2023-11-22T12:38:05;99756.69;;;2.05;71.35
81057;BME280;70563;50.084;14.468;2023-11-22T12:40:33;99757.09;;;2.11;70.71
81057;BME280;70563;50.084;14.468;2023-11-22T12:43:00;99763.34;;;1.96;71.50
81057;BME280;70563;50.084;14.468;2023-11-22T12:45:27;99773.75;;;1.96;71.48
81057;BME280;70563;50.084;14.468;2023-11-22T12:47:57;99762.06;;;1.89;71.70
81057;BME280;70563;50.084;14.468;2023-11-22T12:50:36;99748.31;;;1.87;71.79
81057;BME280;70563;50.084;14.468;2023-11-22T12:53:11;99747.47;;;1.73;72.42
81057;BME280;70563;50.084;14.468;2023-11-22T12:58:14;99744.72;;;1.62;73.18